sensor_id;sensor_type;location;lat;lon;timestamp;P1;durP1;ratioP1;P2;durP2;ratioP2
70365;SDS011;57787;48.216;12.396;2022-12-29T00:00:08;9.35;;;5.15;;
70365;SDS011;57787;48.216;12.396;2022-12-29T00:02:35;9.82;;;5.70;;
70365;SDS011;57787;48.216;12.396;2022-12-29T00:05:05;10.38;;;5.82;;
70365;SDS011;57787;48.216;12.396;2022-12-29T00:07:33;9.27;;;5.40;;
70365;SDS011;57787;48.216;12.396;2022-12-29T00:10:01;9.32;;;5.05;;
70365;SDS011;57787;48.216;12.396;2022-12-29T00:12:28;9.90;;;5.28;;
70365;SDS011;57787;48.216;12.396;2022-12-29T00:15:15;8.80;;;5.63;;
70365;SDS011;57787;48.216;12.396;2022-12-29T00:18:00;8.35;;;4.70;;
70365;SDS011;57787;48.216;12.396;2022-12-29T00:20:27;9.80;;;5.57;;
70365;SDS011;57787;48.216;12.396;2022-12-29T00:23:13;8.43;;;4.78;;
70365;SDS011;57787;48.216;12.396;2022-12-29T00:26:07;8.50;;;4.78;;
70365;SDS011;57787;48.216;12.396;2022-12-29T00:28:58;7.88;;;5.00;;
70365;SDS011;57787;48.216;12.396;2022-12-29T00:31:44;10.82;;;5.32;;
70365;SDS011;57787;48.216;12.396;2022-12-29T00:34:30;6.35;;;4.18;;
70365;SDS011;57787;48.216;12.396;2022-12-29T00:37:15;9.55;;;4.82;;
70365;SDS011;57787;48.216;12.396;2022-12-29T00:42:28;7.18;;;4.07;;
70365;SDS011;57787;48.216;12.396;2022-12-29T00:45:13;7.13;;;4.38;;
70365;SDS011;57787;48.216;12.396;2022-12-29T00:47:43;11.00;;;4.82;;
70365;SDS011;57787;48.216;12.396;2022-12-29T00:50:12;6.13;;;3.90;;
70365;SDS011;57787;48.216;12.396;2022-12-29T00:52:39;7.95;;;4.20;;
70365;SDS011;57787;48.216;12.396;2022-12-29T00:55:08;12.67;;;4.80;;
70365;SDS011;57787;48.216;12.396;2022-12-29T00:57:35;9.30;;;4.20;;
70365;SDS011;57787;48.216;12.396;2022-12-29T01:00:04;8.48;;;5.00;;
70365;SDS011;57787;48.216;12.396;2022-12-29T01:02:32;8.00;;;4.82;;
70365;SDS011;57787;48.216;12.396;2022-12-29T01:05:00;11.00;;;4.40;;
70365;SDS011;57787;48.216;12.396;2022-12-29T01:07:27;8.50;;;4.00;;
70365;SDS011;57787;48.216;12.396;2022-12-29T01:09:53;7.80;;;4.60;;
70365;SDS011;57787;48.216;12.396;2022-12-29T01:12:38;7.47;;;4.38;;
70365;SDS011;57787;48.216;12.396;2022-12-29T01:15:09;8.23;;;4.20;;
70365;SDS011;57787;48.216;12.396;2022-12-29T01:17:38;7.72;;;4.55;;
70365;SDS011;57787;48.216;12.396;2022-12-29T01:20:05;7.60;;;4.13;;
70365;SDS011;57787;48.216;12.396;2022-12-29T01:22:32;7.60;;;4.13;;
70365;SDS011;57787;48.216;12.396;2022-12-29T01:24:59;6.33;;;3.80;;
70365;SDS011;57787;48.216;12.396;2022-12-29T01:27:26;6.57;;;4.00;;
70365;SDS011;57787;48.216;12.396;2022-12-29T01:29:52;6.30;;;3.33;;
70365;SDS011;57787;48.216;12.396;2022-12-29T01:32:19;6.53;;;3.80;;
70365;SDS011;57787;48.216;12.396;2022-12-29T01:34:46;6.03;;;3.13;;
70365;SDS011;57787;48.216;12.396;2022-12-29T01:37:14;7.80;;;4.20;;
70365;SDS011;57787;48.216;12.396;2022-12-29T01:39:43;4.90;;;3.17;;
70365;SDS011;57787;48.216;12.396;2022-12-29T01:42:13;4.47;;;2.97;;
70365;SDS011;57787;48.216;12.396;2022-12-29T01:44:50;5.50;;;3.35;;
70365;SDS011;57787;48.216;12.396;2022-12-29T01:49:55;5.25;;;3.03;;
70365;SDS011;57787;48.216;12.396;2022-12-29T01:52:24;5.63;;;3.28;;
70365;SDS011;57787;48.216;12.396;2022-12-29T01:54:54;6.32;;;3.30;;
70365;SDS011;57787;48.216;12.396;2022-12-29T01:57:24;5.50;;;3.60;;
70365;SDS011;57787;48.216;12.396;2022-12-29T01:59:56;5.97;;;3.22;;
70365;SDS011;57787;48.216;12.396;2022-12-29T02:02:29;5.80;;;3.15;;
70365;SDS011;57787;48.216;12.396;2022-12-29T02:04:59;6.97;;;3.38;;
70365;SDS011;57787;48.216;12.396;2022-12-29T02:07:31;5.97;;;3.53;;
70365;SDS011;57787;48.216;12.396;2022-12-29T02:09:58;4.18;;;2.92;;
70365;SDS011;57787;48.216;12.396;2022-12-29T02:12:30;6.10;;;3.45;;
70365;SDS011;57787;48.216;12.396;2022-12-29T02:14:58;8.03;;;3.27;;
70365;SDS011;57787;48.216;12.396;2022-12-29T02:25:35;4.95;;;2.90;;
70365;SDS011;57787;48.216;12.396;2022-12-29T02:31:16;6.15;;;3.03;;
70365;SDS011;57787;48.216;12.396;2022-12-29T02:40:06;5.72;;;3.15;;
70365;SDS011;57787;48.216;12.396;2022-12-29T02:42:46;7.13;;;3.00;;
70365;SDS011;57787;48.216;12.396;2022-12-29T02:50:59;5.38;;;3.30;;
70365;SDS011;57787;48.216;12.396;2022-12-29T02:53:28;5.18;;;3.05;;
70365;SDS011;57787;48.216;12.396;2022-12-29T02:56:16;6.45;;;3.22;;
70365;SDS011;57787;48.216;12.396;2022-12-29T02:58:43;7.32;;;3.25;;
70365;SDS011;57787;48.216;12.396;2022-12-29T03:06:52;6.35;;;3.35;;
70365;SDS011;57787;48.216;12.396;2022-12-29T03:15:40;5.85;;;2.80;;
70365;SDS011;57787;48.216;12.396;2022-12-29T03:21:23;5.43;;;3.42;;
70365;SDS011;57787;48.216;12.396;2022-12-29T03:24:30;4.55;;;3.13;;
70365;SDS011;57787;48.216;12.396;2022-12-29T03:27:01;6.60;;;3.20;;
70365;SDS011;57787;48.216;12.396;2022-12-29T03:29:31;6.45;;;3.20;;
70365;SDS011;57787;48.216;12.396;2022-12-29T03:32:02;5.03;;;2.90;;
70365;SDS011;57787;48.216;12.396;2022-12-29T03:34:30;4.28;;;2.92;;
70365;SDS011;57787;48.216;12.396;2022-12-29T03:37:00;5.68;;;2.97;;
70365;SDS011;57787;48.216;12.396;2022-12-29T03:39:32;7.05;;;2.90;;
70365;SDS011;57787;48.216;12.396;2022-12-29T03:42:01;4.80;;;3.08;;
70365;SDS011;57787;48.216;12.396;2022-12-29T03:44:32;4.20;;;2.55;;
70365;SDS011;57787;48.216;12.396;2022-12-29T03:47:02;4.70;;;2.92;;
70365;SDS011;57787;48.216;12.396;2022-12-29T03:49:29;5.03;;;3.20;;
70365;SDS011;57787;48.216;12.396;2022-12-29T03:51:56;5.03;;;3.27;;
70365;SDS011;57787;48.216;12.396;2022-12-29T03:54:23;6.53;;;3.03;;
70365;SDS011;57787;48.216;12.396;2022-12-29T03:56:50;4.80;;;3.17;;
70365;SDS011;57787;48.216;12.396;2022-12-29T03:59:17;5.27;;;2.90;;
70365;SDS011;57787;48.216;12.396;2022-12-29T04:01:44;5.20;;;3.28;;
70365;SDS011;57787;48.216;12.396;2022-12-29T04:04:11;7.57;;;2.92;;
70365;SDS011;57787;48.216;12.396;2022-12-29T04:06:37;5.95;;;3.22;;
70365;SDS011;57787;48.216;12.396;2022-12-29T04:09:04;5.35;;;2.80;;
70365;SDS011;57787;48.216;12.396;2022-12-29T04:11:32;4.28;;;2.50;;
70365;SDS011;57787;48.216;12.396;2022-12-29T04:14:01;5.70;;;2.72;;
70365;SDS011;57787;48.216;12.396;2022-12-29T04:16:28;5.25;;;2.80;;
70365;SDS011;57787;48.216;12.396;2022-12-29T04:18:54;6.30;;;2.30;;
70365;SDS011;57787;48.216;12.396;2022-12-29T04:21:21;8.30;;;2.10;;
70365;SDS011;57787;48.216;12.396;2022-12-29T04:23:48;3.57;;;2.07;;
70365;SDS011;57787;48.216;12.396;2022-12-29T04:26:21;3.70;;;2.07;;
70365;SDS011;57787;48.216;12.396;2022-12-29T04:28:48;3.17;;;2.30;;
70365;SDS011;57787;48.216;12.396;2022-12-29T04:31:15;3.33;;;2.20;;
70365;SDS011;57787;48.216;12.396;2022-12-29T04:33:44;5.38;;;2.08;;
70365;SDS011;57787;48.216;12.396;2022-12-29T04:36:11;2.85;;;2.03;;
70365;SDS011;57787;48.216;12.396;2022-12-29T04:38:38;4.20;;;2.20;;
70365;SDS011;57787;48.216;12.396;2022-12-29T04:41:05;4.85;;;2.30;;
70365;SDS011;57787;48.216;12.396;2022-12-29T04:43:33;2.90;;;1.93;;
70365;SDS011;57787;48.216;12.396;2022-12-29T04:46:00;4.50;;;1.98;;
70365;SDS011;57787;48.216;12.396;2022-12-29T04:48:27;4.97;;;2.13;;
70365;SDS011;57787;48.216;12.396;2022-12-29T04:50:54;4.73;;;2.20;;
70365;SDS011;57787;48.216;12.396;2022-12-29T04:53:20;5.13;;;1.98;;
70365;SDS011;57787;48.216;12.396;2022-12-29T04:55:48;4.00;;;2.00;;
70365;SDS011;57787;48.216;12.396;2022-12-29T04:58:19;4.75;;;2.40;;
70365;SDS011;57787;48.216;12.396;2022-12-29T05:00:48;6.60;;;2.03;;
70365;SDS011;57787;48.216;12.396;2022-12-29T05:03:19;3.42;;;1.73;;
70365;SDS011;57787;48.216;12.396;2022-12-29T05:05:47;3.65;;;2.35;;
70365;SDS011;57787;48.216;12.396;2022-12-29T05:08:15;6.70;;;4.18;;
70365;SDS011;57787;48.216;12.396;2022-12-29T05:10:44;5.57;;;3.15;;
70365;SDS011;57787;48.216;12.396;2022-12-29T05:13:11;3.90;;;2.35;;
70365;SDS011;57787;48.216;12.396;2022-12-29T05:15:39;6.03;;;2.13;;
70365;SDS011;57787;48.216;12.396;2022-12-29T05:18:10;4.22;;;1.95;;
70365;SDS011;57787;48.216;12.396;2022-12-29T05:20:36;3.60;;;1.75;;
70365;SDS011;57787;48.216;12.396;2022-12-29T05:23:03;4.95;;;1.50;;
70365;SDS011;57787;48.216;12.396;2022-12-29T05:25:36;2.77;;;1.50;;
70365;SDS011;57787;48.216;12.396;2022-12-29T05:28:03;2.90;;;1.70;;
70365;SDS011;57787;48.216;12.396;2022-12-29T05:30:30;3.28;;;1.88;;
70365;SDS011;57787;48.216;12.396;2022-12-29T05:32:57;3.53;;;1.67;;
70365;SDS011;57787;48.216;12.396;2022-12-29T05:35:23;4.70;;;1.97;;
70365;SDS011;57787;48.216;12.396;2022-12-29T05:37:50;3.83;;;1.63;;
70365;SDS011;57787;48.216;12.396;2022-12-29T05:40:19;3.65;;;1.73;;
70365;SDS011;57787;48.216;12.396;2022-12-29T05:42:48;3.75;;;2.05;;
70365;SDS011;57787;48.216;12.396;2022-12-29T05:45:18;6.65;;;2.20;;
70365;SDS011;57787;48.216;12.396;2022-12-29T05:47:45;3.30;;;1.90;;
70365;SDS011;57787;48.216;12.396;2022-12-29T05:50:12;3.67;;;2.60;;
70365;SDS011;57787;48.216;12.396;2022-12-29T05:52:40;6.37;;;2.67;;
70365;SDS011;57787;48.216;12.396;2022-12-29T05:55:07;4.13;;;2.80;;
70365;SDS011;57787;48.216;12.396;2022-12-29T05:57:33;4.45;;;2.28;;
70365;SDS011;57787;48.216;12.396;2022-12-29T06:00:03;43.85;;;16.45;;
70365;SDS011;57787;48.216;12.396;2022-12-29T06:02:31;19.95;;;10.50;;
70365;SDS011;57787;48.216;12.396;2022-12-29T06:04:59;6.05;;;4.43;;
70365;SDS011;57787;48.216;12.396;2022-12-29T06:07:25;10.23;;;5.10;;
70365;SDS011;57787;48.216;12.396;2022-12-29T06:09:52;6.07;;;3.95;;
70365;SDS011;57787;48.216;12.396;2022-12-29T06:12:19;4.27;;;3.50;;
70365;SDS011;57787;48.216;12.396;2022-12-29T06:14:52;4.27;;;2.93;;
70365;SDS011;57787;48.216;12.396;2022-12-29T06:17:19;4.75;;;2.47;;
70365;SDS011;57787;48.216;12.396;2022-12-29T06:19:46;6.28;;;2.55;;
70365;SDS011;57787;48.216;12.396;2022-12-29T06:22:14;4.47;;;2.30;;
70365;SDS011;57787;48.216;12.396;2022-12-29T06:27:07;5.35;;;2.38;;
70365;SDS011;57787;48.216;12.396;2022-12-29T06:29:35;3.50;;;2.03;;
70365;SDS011;57787;48.216;12.396;2022-12-29T06:32:03;3.97;;;2.15;;
70365;SDS011;57787;48.216;12.396;2022-12-29T06:34:30;4.30;;;2.10;;
70365;SDS011;57787;48.216;12.396;2022-12-29T06:36:57;3.67;;;2.00;;
70365;SDS011;57787;48.216;12.396;2022-12-29T06:39:23;4.35;;;2.67;;
70365;SDS011;57787;48.216;12.396;2022-12-29T06:41:53;4.00;;;2.10;;
70365;SDS011;57787;48.216;12.396;2022-12-29T06:44:22;2.97;;;1.88;;
70365;SDS011;57787;48.216;12.396;2022-12-29T06:46:51;4.85;;;2.15;;
70365;SDS011;57787;48.216;12.396;2022-12-29T06:49:18;3.05;;;2.08;;
70365;SDS011;57787;48.216;12.396;2022-12-29T06:51:45;5.40;;;2.67;;
70365;SDS011;57787;48.216;12.396;2022-12-29T06:54:12;4.15;;;2.50;;
70365;SDS011;57787;48.216;12.396;2022-12-29T06:56:39;3.38;;;2.10;;
70365;SDS011;57787;48.216;12.396;2022-12-29T06:59:06;6.90;;;2.33;;
70365;SDS011;57787;48.216;12.396;2022-12-29T07:01:33;5.00;;;2.50;;
70365;SDS011;57787;48.216;12.396;2022-12-29T07:04:02;5.82;;;2.70;;
70365;SDS011;57787;48.216;12.396;2022-12-29T07:06:31;3.25;;;1.88;;
70365;SDS011;57787;48.216;12.396;2022-12-29T07:08:58;3.25;;;2.00;;
70365;SDS011;57787;48.216;12.396;2022-12-29T07:11:28;8.88;;;2.80;;
70365;SDS011;57787;48.216;12.396;2022-12-29T07:13:55;5.93;;;2.30;;
70365;SDS011;57787;48.216;12.396;2022-12-29T07:16:22;4.53;;;2.75;;
70365;SDS011;57787;48.216;12.396;2022-12-29T07:18:49;4.95;;;2.63;;
70365;SDS011;57787;48.216;12.396;2022-12-29T07:21:18;3.08;;;2.05;;
70365;SDS011;57787;48.216;12.396;2022-12-29T07:23:45;3.85;;;2.13;;
70365;SDS011;57787;48.216;12.396;2022-12-29T07:26:13;6.90;;;2.30;;
70365;SDS011;57787;48.216;12.396;2022-12-29T07:28:41;4.57;;;2.47;;
70365;SDS011;57787;48.216;12.396;2022-12-29T07:31:13;4.55;;;2.60;;
70365;SDS011;57787;48.216;12.396;2022-12-29T07:33:49;5.18;;;3.45;;
70365;SDS011;57787;48.216;12.396;2022-12-29T07:36:17;19.05;;;8.73;;
70365;SDS011;57787;48.216;12.396;2022-12-29T07:38:45;7.40;;;3.25;;
70365;SDS011;57787;48.216;12.396;2022-12-29T07:41:14;5.90;;;3.45;;
70365;SDS011;57787;48.216;12.396;2022-12-29T07:43:40;4.50;;;3.03;;
70365;SDS011;57787;48.216;12.396;2022-12-29T07:46:08;4.97;;;2.47;;
70365;SDS011;57787;48.216;12.396;2022-12-29T07:48:56;3.50;;;1.88;;
70365;SDS011;57787;48.216;12.396;2022-12-29T07:51:25;3.65;;;2.13;;
70365;SDS011;57787;48.216;12.396;2022-12-29T07:53:53;5.35;;;2.38;;
70365;SDS011;57787;48.216;12.396;2022-12-29T07:58:51;5.20;;;2.55;;
70365;SDS011;57787;48.216;12.396;2022-12-29T08:01:21;7.03;;;2.80;;
70365;SDS011;57787;48.216;12.396;2022-12-29T08:06:23;7.10;;;2.70;;
70365;SDS011;57787;48.216;12.396;2022-12-29T08:08:50;6.00;;;2.78;;
70365;SDS011;57787;48.216;12.396;2022-12-29T08:13:53;5.10;;;2.03;;
70365;SDS011;57787;48.216;12.396;2022-12-29T08:16:22;4.40;;;2.50;;
70365;SDS011;57787;48.216;12.396;2022-12-29T08:18:49;4.15;;;2.38;;
70365;SDS011;57787;48.216;12.396;2022-12-29T08:21:16;4.90;;;2.43;;
70365;SDS011;57787;48.216;12.396;2022-12-29T08:23:43;4.72;;;2.40;;
70365;SDS011;57787;48.216;12.396;2022-12-29T08:26:10;5.63;;;2.90;;
70365;SDS011;57787;48.216;12.396;2022-12-29T08:28:38;7.05;;;4.00;;
70365;SDS011;57787;48.216;12.396;2022-12-29T08:31:05;8.20;;;3.63;;
70365;SDS011;57787;48.216;12.396;2022-12-29T08:33:38;4.78;;;2.53;;
70365;SDS011;57787;48.216;12.396;2022-12-29T08:36:06;8.80;;;2.30;;
70365;SDS011;57787;48.216;12.396;2022-12-29T08:38:33;5.93;;;3.30;;
70365;SDS011;57787;48.216;12.396;2022-12-29T08:41:00;6.10;;;3.33;;
70365;SDS011;57787;48.216;12.396;2022-12-29T08:43:27;6.60;;;3.17;;
70365;SDS011;57787;48.216;12.396;2022-12-29T08:45:54;4.82;;;2.65;;
70365;SDS011;57787;48.216;12.396;2022-12-29T08:48:24;7.47;;;3.35;;
70365;SDS011;57787;48.216;12.396;2022-12-29T08:53:18;6.70;;;3.67;;
70365;SDS011;57787;48.216;12.396;2022-12-29T08:55:54;7.70;;;3.60;;
70365;SDS011;57787;48.216;12.396;2022-12-29T08:58:30;4.05;;;2.22;;
70365;SDS011;57787;48.216;12.396;2022-12-29T09:01:04;3.25;;;2.08;;
70365;SDS011;57787;48.216;12.396;2022-12-29T09:03:31;4.45;;;2.33;;
70365;SDS011;57787;48.216;12.396;2022-12-29T09:06:20;5.78;;;2.88;;
70365;SDS011;57787;48.216;12.396;2022-12-29T09:08:49;8.85;;;5.15;;
70365;SDS011;57787;48.216;12.396;2022-12-29T09:11:23;4.28;;;2.42;;
70365;SDS011;57787;48.216;12.396;2022-12-29T09:13:52;5.18;;;2.15;;
70365;SDS011;57787;48.216;12.396;2022-12-29T09:16:20;4.50;;;2.30;;
70365;SDS011;57787;48.216;12.396;2022-12-29T09:18:49;3.55;;;2.00;;
70365;SDS011;57787;48.216;12.396;2022-12-29T09:21:16;4.45;;;2.35;;
70365;SDS011;57787;48.216;12.396;2022-12-29T09:23:47;2.75;;;1.92;;
70365;SDS011;57787;48.216;12.396;2022-12-29T09:26:16;4.05;;;2.40;;
70365;SDS011;57787;48.216;12.396;2022-12-29T09:28:42;3.63;;;1.90;;
70365;SDS011;57787;48.216;12.396;2022-12-29T09:31:10;2.88;;;1.75;;
70365;SDS011;57787;48.216;12.396;2022-12-29T09:33:38;4.88;;;1.73;;
70365;SDS011;57787;48.216;12.396;2022-12-29T09:36:08;4.03;;;1.80;;
70365;SDS011;57787;48.216;12.396;2022-12-29T09:41:06;3.22;;;1.80;;
70365;SDS011;57787;48.216;12.396;2022-12-29T09:46:27;6.80;;;4.47;;
70365;SDS011;57787;48.216;12.396;2022-12-29T09:51:55;4.90;;;2.45;;
70365;SDS011;57787;48.216;12.396;2022-12-29T09:57:09;3.60;;;1.58;;
70365;SDS011;57787;48.216;12.396;2022-12-29T09:59:42;1.92;;;1.50;;
70365;SDS011;57787;48.216;12.396;2022-12-29T10:05:03;2.53;;;1.45;;
70365;SDS011;57787;48.216;12.396;2022-12-29T10:16:38;3.83;;;1.60;;
70365;SDS011;57787;48.216;12.396;2022-12-29T10:25:23;3.25;;;1.92;;
70365;SDS011;57787;48.216;12.396;2022-12-29T10:27:59;3.47;;;1.95;;
70365;SDS011;57787;48.216;12.396;2022-12-29T10:30:32;3.70;;;1.95;;
70365;SDS011;57787;48.216;12.396;2022-12-29T10:33:01;2.92;;;1.80;;
70365;SDS011;57787;48.216;12.396;2022-12-29T10:35:35;5.18;;;1.92;;
70365;SDS011;57787;48.216;12.396;2022-12-29T10:38:23;3.53;;;1.88;;
70365;SDS011;57787;48.216;12.396;2022-12-29T10:41:00;4.95;;;2.15;;
70365;SDS011;57787;48.216;12.396;2022-12-29T10:43:49;4.00;;;1.90;;
70365;SDS011;57787;48.216;12.396;2022-12-29T10:46:24;3.92;;;2.40;;
70365;SDS011;57787;48.216;12.396;2022-12-29T10:48:55;7.82;;;2.22;;
70365;SDS011;57787;48.216;12.396;2022-12-29T10:51:28;5.40;;;2.00;;
70365;SDS011;57787;48.216;12.396;2022-12-29T10:54:05;4.50;;;2.42;;
70365;SDS011;57787;48.216;12.396;2022-12-29T10:57:05;6.53;;;2.38;;
70365;SDS011;57787;48.216;12.396;2022-12-29T10:59:38;6.88;;;2.33;;
70365;SDS011;57787;48.216;12.396;2022-12-29T11:07:29;10.93;;;3.95;;
70365;SDS011;57787;48.216;12.396;2022-12-29T11:12:54;4.60;;;2.22;;
70365;SDS011;57787;48.216;12.396;2022-12-29T11:15:37;3.50;;;1.77;;
70365;SDS011;57787;48.216;12.396;2022-12-29T11:18:17;2.95;;;1.73;;
70365;SDS011;57787;48.216;12.396;2022-12-29T11:20:47;4.68;;;1.73;;
70365;SDS011;57787;48.216;12.396;2022-12-29T11:23:24;10.13;;;5.03;;
70365;SDS011;57787;48.216;12.396;2022-12-29T11:26:34;11.68;;;4.57;;
70365;SDS011;57787;48.216;12.396;2022-12-29T11:31:43;3.80;;;1.90;;
70365;SDS011;57787;48.216;12.396;2022-12-29T11:34:38;4.82;;;3.00;;
70365;SDS011;57787;48.216;12.396;2022-12-29T11:37:06;5.03;;;2.28;;
70365;SDS011;57787;48.216;12.396;2022-12-29T11:42:57;2.22;;;1.58;;
70365;SDS011;57787;48.216;12.396;2022-12-29T11:45:26;3.17;;;1.50;;
70365;SDS011;57787;48.216;12.396;2022-12-29T11:48:16;2.83;;;1.55;;
70365;SDS011;57787;48.216;12.396;2022-12-29T11:50:53;3.15;;;1.67;;
70365;SDS011;57787;48.216;12.396;2022-12-29T11:53:25;2.38;;;1.77;;
70365;SDS011;57787;48.216;12.396;2022-12-29T11:55:58;3.45;;;1.73;;
70365;SDS011;57787;48.216;12.396;2022-12-29T11:58:35;4.13;;;1.70;;
70365;SDS011;57787;48.216;12.396;2022-12-29T12:01:04;2.63;;;1.70;;
70365;SDS011;57787;48.216;12.396;2022-12-29T12:03:35;2.00;;;1.48;;
70365;SDS011;57787;48.216;12.396;2022-12-29T12:06:10;3.25;;;1.63;;
70365;SDS011;57787;48.216;12.396;2022-12-29T12:08:46;2.28;;;1.27;;
70365;SDS011;57787;48.216;12.396;2022-12-29T12:11:22;2.75;;;1.30;;
70365;SDS011;57787;48.216;12.396;2022-12-29T12:14:19;3.17;;;1.67;;
70365;SDS011;57787;48.216;12.396;2022-12-29T12:17:12;4.40;;;1.70;;
70365;SDS011;57787;48.216;12.396;2022-12-29T12:25:13;4.03;;;1.58;;
70365;SDS011;57787;48.216;12.396;2022-12-29T12:30:41;2.20;;;1.48;;
70365;SDS011;57787;48.216;12.396;2022-12-29T12:38:30;1.80;;;1.20;;
70365;SDS011;57787;48.216;12.396;2022-12-29T12:41:20;5.57;;;1.70;;
70365;SDS011;57787;48.216;12.396;2022-12-29T12:44:24;2.30;;;1.30;;
70365;SDS011;57787;48.216;12.396;2022-12-29T12:50:13;3.10;;;1.60;;
70365;SDS011;57787;48.216;12.396;2022-12-29T12:53:06;4.00;;;1.60;;
70365;SDS011;57787;48.216;12.396;2022-12-29T12:58:27;2.78;;;1.40;;
70365;SDS011;57787;48.216;12.396;2022-12-29T13:01:11;22.67;;;8.83;;
70365;SDS011;57787;48.216;12.396;2022-12-29T13:17:52;3.95;;;1.40;;
70365;SDS011;57787;48.216;12.396;2022-12-29T13:20:39;1.98;;;1.42;;
70365;SDS011;57787;48.216;12.396;2022-12-29T13:24:10;2.47;;;1.20;;
70365;SDS011;57787;48.216;12.396;2022-12-29T13:31:29;2.67;;;1.30;;
70365;SDS011;57787;48.216;12.396;2022-12-29T13:36:42;2.30;;;1.45;;
70365;SDS011;57787;48.216;12.396;2022-12-29T13:39:17;2.55;;;1.73;;
70365;SDS011;57787;48.216;12.396;2022-12-29T13:41:51;2.15;;;1.70;;
70365;SDS011;57787;48.216;12.396;2022-12-29T13:44:43;2.92;;;1.48;;
70365;SDS011;57787;48.216;12.396;2022-12-29T13:47:23;2.28;;;1.20;;
70365;SDS011;57787;48.216;12.396;2022-12-29T13:49:55;2.58;;;1.48;;
70365;SDS011;57787;48.216;12.396;2022-12-29T13:52:27;4.07;;;1.60;;
70365;SDS011;57787;48.216;12.396;2022-12-29T13:55:20;3.00;;;1.70;;
70365;SDS011;57787;48.216;12.396;2022-12-29T14:00:48;2.88;;;1.80;;
70365;SDS011;57787;48.216;12.396;2022-12-29T14:06:25;3.80;;;1.60;;
70365;SDS011;57787;48.216;12.396;2022-12-29T14:08:57;4.38;;;2.03;;
70365;SDS011;57787;48.216;12.396;2022-12-29T14:11:34;7.70;;;3.40;;
70365;SDS011;57787;48.216;12.396;2022-12-29T14:14:12;9.35;;;3.80;;
70365;SDS011;57787;48.216;12.396;2022-12-29T14:16:43;6.68;;;3.22;;
70365;SDS011;57787;48.216;12.396;2022-12-29T14:19:19;7.60;;;3.78;;
70365;SDS011;57787;48.216;12.396;2022-12-29T14:21:54;6.97;;;3.88;;
70365;SDS011;57787;48.216;12.396;2022-12-29T14:26:54;8.60;;;4.22;;
70365;SDS011;57787;48.216;12.396;2022-12-29T14:31:51;37.90;;;14.85;;
70365;SDS011;57787;48.216;12.396;2022-12-29T14:34:29;34.10;;;14.77;;
70365;SDS011;57787;48.216;12.396;2022-12-29T14:37:01;54.13;;;19.85;;
70365;SDS011;57787;48.216;12.396;2022-12-29T14:39:32;37.40;;;13.40;;
70365;SDS011;57787;48.216;12.396;2022-12-29T14:44:48;56.05;;;29.05;;
70365;SDS011;57787;48.216;12.396;2022-12-29T14:47:20;49.42;;;24.30;;
70365;SDS011;57787;48.216;12.396;2022-12-29T14:49:49;19.48;;;9.38;;
70365;SDS011;57787;48.216;12.396;2022-12-29T14:52:19;11.60;;;5.18;;
70365;SDS011;57787;48.216;12.396;2022-12-29T14:55:38;7.68;;;4.35;;
70365;SDS011;57787;48.216;12.396;2022-12-29T14:57:48;8.55;;;4.50;;
70365;SDS011;57787;48.216;12.396;2022-12-29T15:00:24;7.53;;;3.35;;
70365;SDS011;57787;48.216;12.396;2022-12-29T15:05:53;9.18;;;3.15;;
70365;SDS011;57787;48.216;12.396;2022-12-29T15:08:44;6.78;;;3.30;;
70365;SDS011;57787;48.216;12.396;2022-12-29T15:11:20;6.15;;;2.97;;
70365;SDS011;57787;48.216;12.396;2022-12-29T15:13:51;7.40;;;3.53;;
70365;SDS011;57787;48.216;12.396;2022-12-29T15:16:26;9.73;;;4.67;;
70365;SDS011;57787;48.216;12.396;2022-12-29T15:18:59;6.82;;;3.60;;
70365;SDS011;57787;48.216;12.396;2022-12-29T15:21:30;9.50;;;3.90;;
70365;SDS011;57787;48.216;12.396;2022-12-29T15:24:03;6.53;;;3.00;;
70365;SDS011;57787;48.216;12.396;2022-12-29T15:26:42;7.40;;;3.58;;
70365;SDS011;57787;48.216;12.396;2022-12-29T15:29:29;11.82;;;4.20;;
70365;SDS011;57787;48.216;12.396;2022-12-29T15:32:24;8.88;;;4.85;;
70365;SDS011;57787;48.216;12.396;2022-12-29T15:37:28;13.98;;;6.57;;
70365;SDS011;57787;48.216;12.396;2022-12-29T15:40:00;36.45;;;12.68;;
70365;SDS011;57787;48.216;12.396;2022-12-29T15:45:25;72.38;;;22.80;;
70365;SDS011;57787;48.216;12.396;2022-12-29T15:48:01;34.38;;;11.77;;
70365;SDS011;57787;48.216;12.396;2022-12-29T15:50:31;12.50;;;6.30;;
70365;SDS011;57787;48.216;12.396;2022-12-29T15:53:02;12.18;;;5.30;;
70365;SDS011;57787;48.216;12.396;2022-12-29T15:55:37;10.60;;;5.82;;
70365;SDS011;57787;48.216;12.396;2022-12-29T15:58:25;22.38;;;9.15;;
70365;SDS011;57787;48.216;12.396;2022-12-29T16:00:59;27.35;;;10.75;;
70365;SDS011;57787;48.216;12.396;2022-12-29T16:03:32;96.82;;;28.30;;
70365;SDS011;57787;48.216;12.396;2022-12-29T16:06:09;78.82;;;25.08;;
70365;SDS011;57787;48.216;12.396;2022-12-29T16:09:10;70.85;;;24.42;;
70365;SDS011;57787;48.216;12.396;2022-12-29T16:11:56;61.47;;;22.73;;
70365;SDS011;57787;48.216;12.396;2022-12-29T16:14:43;59.17;;;23.20;;
70365;SDS011;57787;48.216;12.396;2022-12-29T16:17:18;45.45;;;16.08;;
70365;SDS011;57787;48.216;12.396;2022-12-29T16:19:51;40.55;;;15.75;;
70365;SDS011;57787;48.216;12.396;2022-12-29T16:22:38;28.70;;;14.25;;
70365;SDS011;57787;48.216;12.396;2022-12-29T16:28:13;19.80;;;10.55;;
70365;SDS011;57787;48.216;12.396;2022-12-29T16:30:43;17.52;;;9.15;;
70365;SDS011;57787;48.216;12.396;2022-12-29T16:33:28;16.73;;;8.80;;
70365;SDS011;57787;48.216;12.396;2022-12-29T16:36:02;23.88;;;11.55;;
70365;SDS011;57787;48.216;12.396;2022-12-29T16:38:47;23.50;;;11.45;;
70365;SDS011;57787;48.216;12.396;2022-12-29T16:41:30;22.48;;;11.10;;
70365;SDS011;57787;48.216;12.396;2022-12-29T16:49:28;19.88;;;9.55;;
70365;SDS011;57787;48.216;12.396;2022-12-29T16:51:59;18.77;;;7.25;;
70365;SDS011;57787;48.216;12.396;2022-12-29T16:54:34;12.98;;;6.80;;
70365;SDS011;57787;48.216;12.396;2022-12-29T16:57:03;15.95;;;6.43;;
70365;SDS011;57787;48.216;12.396;2022-12-29T16:59:40;12.88;;;7.13;;
70365;SDS011;57787;48.216;12.396;2022-12-29T17:02:14;13.23;;;7.57;;
70365;SDS011;57787;48.216;12.396;2022-12-29T17:04:46;14.88;;;8.00;;
70365;SDS011;57787;48.216;12.396;2022-12-29T17:07:21;15.10;;;7.63;;
70365;SDS011;57787;48.216;12.396;2022-12-29T17:09:50;18.17;;;7.68;;
70365;SDS011;57787;48.216;12.396;2022-12-29T17:12:24;18.80;;;7.93;;
70365;SDS011;57787;48.216;12.396;2022-12-29T17:14:57;15.55;;;6.85;;
70365;SDS011;57787;48.216;12.396;2022-12-29T17:17:30;14.48;;;5.90;;
70365;SDS011;57787;48.216;12.396;2022-12-29T17:20:19;14.98;;;7.50;;
70365;SDS011;57787;48.216;12.396;2022-12-29T17:22:52;16.73;;;8.70;;
70365;SDS011;57787;48.216;12.396;2022-12-29T17:25:21;12.57;;;6.95;;
70365;SDS011;57787;48.216;12.396;2022-12-29T17:28:00;16.33;;;7.22;;
70365;SDS011;57787;48.216;12.396;2022-12-29T17:30:44;13.60;;;7.15;;
70365;SDS011;57787;48.216;12.396;2022-12-29T17:33:13;15.68;;;7.70;;
70365;SDS011;57787;48.216;12.396;2022-12-29T17:35:47;13.15;;;6.30;;
70365;SDS011;57787;48.216;12.396;2022-12-29T17:38:30;13.10;;;6.85;;
70365;SDS011;57787;48.216;12.396;2022-12-29T17:41:00;9.50;;;5.40;;
70365;SDS011;57787;48.216;12.396;2022-12-29T17:43:29;15.73;;;7.85;;
70365;SDS011;57787;48.216;12.396;2022-12-29T17:46:02;19.77;;;9.45;;
70365;SDS011;57787;48.216;12.396;2022-12-29T17:48:34;23.20;;;9.70;;
70365;SDS011;57787;48.216;12.396;2022-12-29T17:51:03;47.50;;;16.95;;
70365;SDS011;57787;48.216;12.396;2022-12-29T17:53:37;32.50;;;13.88;;